Time;durP1;ratioP1;P1;durP2;ratioP2;P2;SDS_P1;SDS_P2;PMS_P1;PMS_P2;Temp;Humidity;BMP_temperature;BMP_pressure;BME280_temperature;BME280_humidity;BME280_pressure;Samples;Min_cycle;Max_cycle;Signal;HPM_P1;HPM_P2
2022/03/31 00:00:46;;;;;;;;;;;4.90;99.90;;;;;;5044590;28;19921;-70
2022/03/31 00:03:14;;;;;;;;;;;4.90;99.90;;;;;;5044369;28;19927;-70
2022/03/31 00:05:42;;;;;;;;;;;4.90;99.90;;;;;;5043320;28;19925;-72
2022/03/31 00:08:09;;;;;;;;;;;4.90;99.90;;;;;;5044238;28;19944;-70
2022/03/31 00:10:37;;;;;;;;;;;4.90;99.90;;;;;;5043851;28;19921;-69
2022/03/31 00:13:05;;;;;;;;;;;4.90;99.90;;;;;;5044412;28;19927;-70
2022/03/31 00:15:32;;;;;;;;;;;4.90;99.90;;;;;;5043278;28;19921;-71
2022/03/31 00:18:00;;;;;;;;;;;4.90;99.90;;;;;;5043826;28;20223;-71
2022/03/31 00:20:26;;;;;;;;;;;4.90;99.90;;;;;;5044032;28;19921;-70
2022/03/31 00:22:54;;;;;;;;;;;4.90;99.90;;;;;;5043836;28;20213;-72
2022/03/31 00:25:22;;;;;;;;;;;4.90;99.90;;;;;;5043069;28;20224;-70
2022/03/31 00:27:49;;;;;;;;;;;4.80;99.90;;;;;;5043489;28;19921;-70
2022/03/31 00:30:15;;;;;;;;;;;4.80;99.90;;;;;;5043365;28;19921;-71
2022/03/31 00:32:42;;;;;;;;;;;4.80;99.90;;;;;;5044187;28;20135;-70
2022/03/31 00:35:10;;;;;;;;;;;4.80;99.90;;;;;;5043744;28;19921;-72
2022/03/31 00:37:37;;;;;;;;;;;4.80;99.90;;;;;;5043503;28;19979;-70
2022/03/31 00:40:05;;;;;;;;;;;4.70;99.90;;;;;;5044276;28;19921;-72
2022/03/31 00:42:32;;;;;;;;;;;4.70;99.90;;;;;;5043445;28;20227;-70
2022/03/31 00:44:59;;;;;;;;;;;4.70;99.90;;;;;;5043004;28;19952;-70
2022/03/31 00:47:25;;;;;;;;;;;4.70;99.90;;;;;;5023238;28;19922;-70
2022/03/31 00:49:52;;;;;;;;;;;4.70;99.90;;;;;;5023644;28;19936;-70
2022/03/31 00:52:18;;;;;;;;;;;4.70;99.90;;;;;;5027008;28;19927;-70
2022/03/31 00:54:45;;;;;;;;;;;4.60;99.90;;;;;;5041268;28;19921;-70
2022/03/31 00:57:14;;;;;;;;;;;4.60;99.90;;;;;;5043000;28;19928;-70
2022/03/31 00:59:40;;;;;;;;;;;4.60;99.90;;;;;;5043164;28;19956;-70
2022/03/31 01:02:08;;;;;;;;;;;4.60;99.90;;;;;;5043365;28;19921;-70
2022/03/31 01:04:35;;;;;;;;;;;4.60;99.90;;;;;;5042722;28;20232;-70
2022/03/31 01:07:02;;;;;;;;;;;4.60;99.90;;;;;;5042948;28;19921;-69
2022/03/31 01:09:31;;;;;;;;;;;4.70;99.90;;;;;;5042855;28;19921;-70
2022/03/31 01:11:58;;;;;;;;;;;4.70;99.90;;;;;;5043365;28;19927;-70
2022/03/31 01:14:26;;;;;;;;;;;4.70;99.90;;;;;;5043099;28;19921;-70
2022/03/31 01:16:52;;;;;;;;;;;4.70;99.90;;;;;;5040510;28;20660;-70
2022/03/31 01:19:19;;;;;;;;;;;4.70;99.90;;;;;;5043018;28;19921;-70
2022/03/31 01:21:46;;;;;;;;;;;4.70;99.90;;;;;;5043270;28;19921;-70
2022/03/31 01:24:15;;;;;;;;;;;4.70;99.90;;;;;;5043370;28;19967;-70
2022/03/31 01:26:43;;;;;;;;;;;4.70;99.90;;;;;;5042502;28;19987;-70
2022/03/31 01:29:10;;;;;;;;;;;4.70;99.90;;;;;;5042767;28;20212;-69
2022/03/31 01:31:38;;;;;;;;;;;4.70;99.90;;;;;;5042439;28;19922;-71
2022/03/31 01:34:05;;;;;;;;;;;4.70;99.90;;;;;;5043046;28;19944;-71
2022/03/31 01:36:32;;;;;;;;;;;4.70;99.90;;;;;;5042634;28;20240;-70
2022/03/31 01:38:58;;;;;;;;;;;4.70;99.90;;;;;;5043987;28;19921;-70
2022/03/31 01:41:26;;;;;;;;;;;4.70;99.90;;;;;;5045367;28;20156;-72
2022/03/31 01:43:53;;;;;;;;;;;4.80;99.90;;;;;;5046601;28;19929;-70
2022/03/31 01:46:20;;;;;;;;;;;4.80;99.90;;;;;;5046341;28;19985;-70
2022/03/31 01:48:46;;;;;;;;;;;4.70;99.90;;;;;;5046604;28;19928;-70
2022/03/31 01:51:14;;;;;;;;;;;4.80;99.90;;;;;;5046957;28;19925;-70
2022/03/31 01:53:41;;;;;;;;;;;4.80;99.90;;;;;;5046473;28;19921;-70
2022/03/31 01:56:07;;;;;;;;;;;4.80;99.90;;;;;;5043890;28;19929;-70
2022/03/31 01:58:36;;;;;;;;;;;4.80;99.90;;;;;;5046574;28;20233;-69
2022/03/31 02:01:03;;;;;;;;;;;4.80;99.90;;;;;;5046278;28;19967;-69
2022/03/31 02:03:30;;;;;;;;;;;4.80;99.90;;;;;;5046824;28;19928;-70
2022/03/31 02:05:56;;;;;;;;;;;4.80;99.90;;;;;;5045777;28;19924;-70
2022/03/31 02:08:23;;;;;;;;;;;4.80;99.90;;;;;;5046537;28;20016;-70
2022/03/31 02:10:50;;;;;;;;;;;4.80;99.90;;;;;;5046534;28;19921;-70
2022/03/31 02:13:17;;;;;;;;;;;4.80;99.90;;;;;;5044685;28;19968;-70
2022/03/31 02:15:45;;;;;;;;;;;4.80;99.90;;;;;;5045387;28;19922;-71
2022/03/31 02:18:12;;;;;;;;;;;4.80;99.90;;;;;;5046515;28;19921;-70
2022/03/31 02:20:39;;;;;;;;;;;4.80;99.90;;;;;;5046586;28;19927;-70
2022/03/31 02:23:05;;;;;;;;;;;4.80;99.90;;;;;;5037641;28;19922;-70
2022/03/31 02:25:32;;;;;;;;;;;4.80;99.90;;;;;;5045408;28;19921;-72
2022/03/31 02:27:59;;;;;;;;;;;4.80;99.90;;;;;;5045871;28;19972;-69
2022/03/31 02:30:27;;;;;;;;;;;4.80;99.90;;;;;;5045821;28;19921;-70
2022/03/31 02:32:55;;;;;;;;;;;4.80;99.90;;;;;;5046021;28;20259;-70
2022/03/31 02:35:21;;;;;;;;;;;4.80;99.90;;;;;;5045540;28;19929;-70
2022/03/31 02:37:48;;;;;;;;;;;4.80;99.90;;;;;;5046228;28;19921;-69
2022/03/31 02:40:15;;;;;;;;;;;4.80;99.90;;;;;;5045694;28;19928;-71
2022/03/31 02:42:41;;;;;;;;;;;4.80;99.90;;;;;;5046069;28;19944;-69
2022/03/31 02:45:08;;;;;;;;;;;4.80;99.90;;;;;;5045592;28;19952;-70
2022/03/31 02:47:35;;;;;;;;;;;4.80;99.90;;;;;;5045701;28;19928;-71
2022/03/31 02:50:03;;;;;;;;;;;4.80;99.90;;;;;;5044997;28;19959;-70
2022/03/31 02:55:24;;;;;;;;;;;4.80;99.90;;;;;;5045479;28;19928;-70
2022/03/31 02:55:25;;;;;;;;;;;4.80;99.90;;;;;;5042696;28;19921;-72
2022/03/31 02:57:51;;;;;;;;;;;4.80;99.90;;;;;;5045646;28;19978;-70
2022/03/31 03:00:18;;;;;;;;;;;4.70;99.90;;;;;;5045184;28;19921;-70
2022/03/31 03:02:45;;;;;;;;;;;4.70;99.90;;;;;;5045617;28;19927;-70
2022/03/31 03:05:12;;;;;;;;;;;4.70;99.90;;;;;;5044910;28;19927;-72
2022/03/31 03:07:39;;;;;;;;;;;4.70;99.90;;;;;;5045490;28;19921;-69
2022/03/31 03:10:06;;;;;;;;;;;4.60;99.90;;;;;;5045600;28;19929;-70
2022/03/31 03:12:33;;;;;;;;;;;4.60;99.90;;;;;;5045288;28;20227;-69
2022/03/31 03:14:59;;;;;;;;;;;4.60;99.90;;;;;;5045482;28;19951;-69
2022/03/31 03:17:26;;;;;;;;;;;4.60;99.90;;;;;;5044305;28;19944;-69
2022/03/31 03:19:52;;;;;;;;;;;4.60;99.90;;;;;;5045000;28;19929;-70
2022/03/31 03:22:22;;;;;;;;;;;4.60;99.90;;;;;;5042903;28;19921;-70
2022/03/31 03:24:49;;;;;;;;;;;4.60;99.90;;;;;;5045413;28;19928;-69
2022/03/31 03:27:15;;;;;;;;;;;4.60;99.90;;;;;;5044500;28;19925;-69
2022/03/31 03:29:46;;;;;;;;;;;4.50;99.90;;;;;;5044372;28;19921;-70
2022/03/31 03:32:13;;;;;;;;;;;4.50;99.90;;;;;;5044917;28;19921;-71
2022/03/31 03:34:40;;;;;;;;;;;4.50;99.90;;;;;;5045423;28;19921;-70
2022/03/31 03:37:07;;;;;;;;;;;4.50;99.90;;;;;;5044438;28;19940;-69
2022/03/31 03:39:35;;;;;;;;;;;4.60;99.90;;;;;;5045004;28;20136;-71
2022/03/31 03:42:02;;;;;;;;;;;4.60;99.90;;;;;;5044796;28;20231;-71
2022/03/31 03:44:29;;;;;;;;;;;4.60;99.90;;;;;;5044482;28;19921;-70
2022/03/31 03:46:55;;;;;;;;;;;4.60;99.90;;;;;;5043844;28;19921;-70
2022/03/31 03:49:22;;;;;;;;;;;4.60;99.90;;;;;;5044607;28;19925;-70
2022/03/31 03:51:48;;;;;;;;;;;4.60;99.90;;;;;;5044765;28;20209;-71
2022/03/31 03:54:15;;;;;;;;;;;4.70;99.90;;;;;;5044181;28;20216;-72
2022/03/31 03:56:44;;;;;;;;;;;4.60;99.90;;;;;;5041812;28;20236;-70
2022/03/31 03:59:10;;;;;;;;;;;4.60;99.90;;;;;;5044167;28;19921;-69
2022/03/31 04:01:37;;;;;;;;;;;4.60;99.90;;;;;;5043990;28;19928;-71
2022/03/31 04:04:04;;;;;;;;;;;4.70;99.90;;;;;;5044460;28;19921;-69
2022/03/31 04:06:31;;;;;;;;;;;4.70;99.90;;;;;;5043466;28;19921;-72
2022/03/31 04:08:57;;;;;;;;;;;4.70;99.90;;;;;;5044275;28;19928;-70
2022/03/31 04:11:24;;;;;;;;;;;4.70;99.90;;;;;;5044095;28;19921;-70
2022/03/31 04:13:53;;;;;;;;;;;4.80;99.90;;;;;;5041394;28;19929;-69
2022/03/31 04:16:19;;;;;;;;;;;4.70;99.90;;;;;;5043633;28;19921;-70
2022/03/31 04:18:46;;;;;;;;;;;4.70;99.90;;;;;;5044384;28;19952;-69
2022/03/31 04:21:14;;;;;;;;;;;4.70;99.90;;;;;;5044359;28;19921;-70
2022/03/31 04:23:40;;;;;;;;;;;4.70;99.90;;;;;;5043998;28;19967;-70
2022/03/31 04:26:07;;;;;;;;;;;4.70;99.90;;;;;;5043240;28;19944;-70
2022/03/31 04:28:33;;;;;;;;;;;4.60;99.90;;;;;;5041322;28;20105;-70
2022/03/31 04:31:01;;;;;;;;;;;4.60;99.90;;;;;;5044384;28;19943;-70
2022/03/31 04:33:28;;;;;;;;;;;4.60;99.90;;;;;;5043952;28;19927;-70
2022/03/31 04:35:55;;;;;;;;;;;4.60;99.90;;;;;;5043579;28;19935;-70
2022/03/31 04:38:22;;;;;;;;;;;4.50;99.90;;;;;;5043973;28;19929;-71
2022/03/31 04:40:48;;;;;;;;;;;4.50;99.90;;;;;;5043782;28;19921;-70
2022/03/31 04:43:15;;;;;;;;;;;4.50;99.90;;;;;;5043780;28;20215;-69
2022/03/31 04:45:42;;;;;;;;;;;4.50;99.90;;;;;;5042450;28;20121;-70
2022/03/31 04:48:10;;;;;;;;;;;4.50;99.90;;;;;;5043843;28;19921;-70
2022/03/31 04:50:37;;;;;;;;;;;4.50;99.90;;;;;;5043592;28;19927;-70
2022/03/31 04:53:03;;;;;;;;;;;4.50;99.90;;;;;;5043506;28;19928;-70
2022/03/31 04:55:30;;;;;;;;;;;4.40;99.90;;;;;;5041641;28;19965;-71
2022/03/31 04:57:57;;;;;;;;;;;4.50;99.90;;;;;;5042712;28;20224;-70
2022/03/31 05:00:23;;;;;;;;;;;4.50;99.90;;;;;;5043406;28;19928;-69
2022/03/31 05:02:50;;;;;;;;;;;4.50;99.90;;;;;;5043369;28;19960;-69
2022/03/31 05:05:18;;;;;;;;;;;4.50;99.90;;;;;;5042941;28;19921;-70
2022/03/31 05:07:44;;;;;;;;;;;4.50;99.90;;;;;;5042492;28;19921;-73
2022/03/31 05:10:11;;;;;;;;;;;4.50;99.90;;;;;;5042880;28;20209;-70
2022/03/31 05:12:38;;;;;;;;;;;4.50;99.90;;;;;;5043858;28;20090;-69
2022/03/31 05:15:06;;;;;;;;;;;4.50;99.90;;;;;;5030715;28;19921;-67
2022/03/31 05:17:33;;;;;;;;;;;4.50;99.90;;;;;;5042236;28;19941;-69
2022/03/31 05:19:59;;;;;;;;;;;4.50;99.90;;;;;;5043812;28;19921;-69
2022/03/31 05:22:33;;;;;;;;;;;4.50;99.90;;;;;;5041463;28;19921;-69
2022/03/31 05:25:02;;;;;;;;;;;4.50;99.90;;;;;;5042657;28;19922;-70
2022/03/31 05:27:29;;;;;;;;;;;4.50;99.90;;;;;;5043168;28;19927;-69
2022/03/31 05:29:57;;;;;;;;;;;4.60;99.90;;;;;;5043678;28;19921;-69
2022/03/31 05:32:28;;;;;;;;;;;4.50;99.90;;;;;;5040779;28;20217;-70
2022/03/31 05:34:55;;;;;;;;;;;4.50;99.90;;;;;;5043635;28;19928;-70
2022/03/31 05:37:23;;;;;;;;;;;4.50;99.90;;;;;;5042853;28;20227;-71
2022/03/31 05:39:52;;;;;;;;;;;4.50;99.90;;;;;;5043348;28;19930;-72
2022/03/31 05:42:18;;;;;;;;;;;4.50;99.90;;;;;;5043472;28;19921;-67
2022/03/31 05:44:45;;;;;;;;;;;4.50;99.90;;;;;;5042758;28;19920;-69
2022/03/31 05:47:11;;;;;;;;;;;4.50;99.90;;;;;;5042193;28;19928;-70
2022/03/31 05:49:38;;;;;;;;;;;4.60;99.90;;;;;;5040706;28;20223;-71
2022/03/31 05:52:05;;;;;;;;;;;4.60;99.90;;;;;;5043579;28;19927;-69
2022/03/31 05:54:32;;;;;;;;;;;4.60;99.90;;;;;;5041132;28;19932;-71
2022/03/31 05:57:00;;;;;;;;;;;4.60;99.90;;;;;;5042410;28;19929;-70
2022/03/31 05:59:26;;;;;;;;;;;4.60;99.90;;;;;;5042983;28;19921;-70
2022/03/31 06:01:53;;;;;;;;;;;4.60;99.90;;;;;;5042074;28;19925;-70
2022/03/31 06:04:21;;;;;;;;;;;4.60;99.90;;;;;;5042608;28;19925;-70
2022/03/31 06:06:47;;;;;;;;;;;4.60;99.90;;;;;;5041705;28;19929;-70
2022/03/31 06:09:14;;;;;;;;;;;4.70;99.90;;;;;;5042983;28;20090;-70
2022/03/31 06:11:41;;;;;;;;;;;4.70;99.90;;;;;;5042948;28;19921;-70
2022/03/31 06:14:08;;;;;;;;;;;4.70;99.90;;;;;;5040228;28;19921;-69
2022/03/31 06:16:35;;;;;;;;;;;4.70;99.90;;;;;;5042088;28;19921;-69
2022/03/31 06:19:02;;;;;;;;;;;4.70;99.90;;;;;;5043029;28;19928;-69
2022/03/31 06:21:28;;;;;;;;;;;4.80;99.90;;;;;;5042709;28;19928;-70
2022/03/31 06:23:55;;;;;;;;;;;4.80;99.90;;;;;;5042357;28;19929;-70
2022/03/31 06:26:22;;;;;;;;;;;4.80;99.90;;;;;;5043924;28;20097;-69
2022/03/31 06:28:49;;;;;;;;;;;4.80;99.90;;;;;;5045634;28;19921;-70
2022/03/31 06:31:22;;;;;;;;;;;4.80;99.90;;;;;;5045175;28;19921;-70
2022/03/31 06:33:49;;;;;;;;;;;4.80;99.90;;;;;;5046710;28;19921;-74
2022/03/31 06:36:16;;;;;;;;;;;4.80;99.90;;;;;;5045894;28;19921;-70
2022/03/31 06:38:43;;;;;;;;;;;4.80;99.90;;;;;;5046264;28;19921;-70
2022/03/31 06:41:13;;;;;;;;;;;4.80;99.90;;;;;;5045507;28;19964;-70
2022/03/31 06:43:40;;;;;;;;;;;4.90;99.90;;;;;;5046309;28;19984;-70
2022/03/31 06:46:07;;;;;;;;;;;4.80;99.90;;;;;;5045631;28;20064;-70
2022/03/31 06:48:36;;;;;;;;;;;4.90;99.90;;;;;;5046329;28;19921;-70
2022/03/31 06:51:03;;;;;;;;;;;4.90;99.90;;;;;;5046285;28;19921;-70
2022/03/31 06:53:30;;;;;;;;;;;5.00;99.90;;;;;;5046035;28;20156;-69
2022/03/31 06:55:57;;;;;;;;;;;5.00;99.90;;;;;;5042937;28;19921;-70
2022/03/31 06:58:25;;;;;;;;;;;5.00;99.90;;;;;;5045847;28;20231;-70
2022/03/31 07:00:51;;;;;;;;;;;5.00;99.90;;;;;;5045737;28;19933;-70
2022/03/31 07:03:18;;;;;;;;;;;5.10;99.90;;;;;;5045512;28;19927;-70
2022/03/31 07:05:49;;;;;;;;;;;5.10;99.90;;;;;;5044730;28;19927;-70
2022/03/31 07:08:18;;;;;;;;;;;5.10;99.90;;;;;;5043613;28;19921;-71
2022/03/31 07:10:45;;;;;;;;;;;5.10;99.90;;;;;;5043147;28;19967;-70
2022/03/31 07:13:11;;;;;;;;;;;5.10;99.90;;;;;;5045877;28;19921;-70
2022/03/31 07:15:38;;;;;;;;;;;5.10;99.90;;;;;;5044755;28;20112;-71
2022/03/31 07:18:05;;;;;;;;;;;5.00;99.90;;;;;;5043033;28;19920;-70
2022/03/31 07:20:32;;;;;;;;;;;5.10;99.90;;;;;;5045416;28;19921;-69
2022/03/31 07:23:00;;;;;;;;;;;5.10;99.90;;;;;;5045277;28;19940;-70
2022/03/31 07:25:27;;;;;;;;;;;5.10;99.90;;;;;;5041723;28;19967;-71
2022/03/31 07:27:54;;;;;;;;;;;5.20;99.90;;;;;;5045036;28;20213;-69
2022/03/31 07:30:21;;;;;;;;;;;5.20;99.90;;;;;;5044122;28;19921;-70
2022/03/31 07:32:49;;;;;;;;;;;5.20;99.90;;;;;;5042938;28;19929;-69
2022/03/31 07:35:16;;;;;;;;;;;5.20;99.90;;;;;;5044534;28;20209;-70
2022/03/31 07:37:42;;;;;;;;;;;5.20;99.90;;;;;;5045015;28;19921;-71
2022/03/31 07:40:11;;;;;;;;;;;5.20;99.90;;;;;;5045308;28;19924;-69
2022/03/31 07:42:38;;;;;;;;;;;5.20;99.90;;;;;;5045346;28;20112;-70
2022/03/31 07:45:05;;;;;;;;;;;5.20;99.90;;;;;;5044853;28;19921;-70
2022/03/31 07:47:32;;;;;;;;;;;5.20;99.90;;;;;;5044416;28;20204;-70
2022/03/31 07:49:58;;;;;;;;;;;5.20;99.90;;;;;;5044636;28;19921;-69
2022/03/31 07:52:25;;;;;;;;;;;5.20;99.90;;;;;;5045048;28;19921;-70
2022/03/31 07:54:52;;;;;;;;;;;5.20;99.90;;;;;;5044358;28;19952;-70
2022/03/31 07:57:20;;;;;;;;;;;5.30;99.90;;;;;;5043157;28;19987;-70
2022/03/31 07:59:47;;;;;;;;;;;5.30;99.90;;;;;;5044534;28;19921;-70
2022/03/31 08:02:13;;;;;;;;;;;5.40;99.90;;;;;;5044523;28;20124;-70
2022/03/31 08:04:40;;;;;;;;;;;5.40;99.90;;;;;;5041665;28;20089;-70
2022/03/31 08:07:06;;;;;;;;;;;5.40;99.90;;;;;;5043477;28;19925;-69
2022/03/31 08:09:36;;;;;;;;;;;5.40;99.90;;;;;;5038982;28;19955;-70
2022/03/31 08:12:03;;;;;;;;;;;5.40;99.90;;;;;;5044547;28;19921;-70
2022/03/31 08:14:32;;;;;;;;;;;5.40;99.90;;;;;;5041786;28;19927;-70
2022/03/31 08:16:58;;;;;;;;;;;5.40;99.90;;;;;;5043391;28;19925;-70
2022/03/31 08:19:27;;;;;;;;;;;5.40;99.90;;;;;;5044005;28;19957;-70
2022/03/31 08:21:54;;;;;;;;;;;5.40;99.90;;;;;;5044436;28;19921;-70
2022/03/31 08:24:20;;;;;;;;;;;5.40;99.90;;;;;;5044047;28;19928;-70
2022/03/31 08:26:47;;;;;;;;;;;5.40;99.90;;;;;;5043872;28;19927;-70
2022/03/31 08:29:13;;;;;;;;;;;5.50;99.90;;;;;;5044473;28;19921;-69
2022/03/31 08:31:41;;;;;;;;;;;5.50;99.90;;;;;;5044320;28;19928;-70
2022/03/31 08:34:08;;;;;;;;;;;5.50;99.90;;;;;;5044095;28;19967;-70
2022/03/31 08:36:35;;;;;;;;;;;5.50;99.90;;;;;;5043606;28;19927;-69
2022/03/31 08:39:02;;;;;;;;;;;5.50;99.90;;;;;;5044198;28;19928;-70
2022/03/31 08:41:29;;;;;;;;;;;5.50;99.90;;;;;;5044030;28;19921;-70
2022/03/31 08:43:56;;;;;;;;;;;5.60;99.90;;;;;;5043794;28;19928;-70
2022/03/31 08:46:23;;;;;;;;;;;5.60;99.90;;;;;;5043403;28;19928;-70
2022/03/31 08:48:51;;;;;;;;;;;5.70;99.90;;;;;;5041244;28;19921;-69
2022/03/31 08:51:17;;;;;;;;;;;5.80;99.90;;;;;;5042377;28;19925;-69
2022/03/31 08:53:44;;;;;;;;;;;5.80;99.90;;;;;;5043437;28;19925;-69
2022/03/31 08:56:11;;;;;;;;;;;5.90;99.90;;;;;;5043350;28;19921;-69
2022/03/31 08:58:37;;;;;;;;;;;6.00;99.90;;;;;;5043918;28;19929;-69
2022/03/31 09:01:04;;;;;;;;;;;6.00;99.90;;;;;;5043261;28;19921;-69
2022/03/31 09:03:34;;;;;;;;;;;6.10;99.90;;;;;;5043487;28;19924;-69
2022/03/31 09:06:04;;;;;;;;;;;6.10;99.90;;;;;;5043125;28;19921;-70
2022/03/31 09:08:32;;;;;;;;;;;6.10;99.90;;;;;;5042690;28;21330;-69
2022/03/31 09:11:00;;;;;;;;;;;6.10;99.90;;;;;;5043719;28;19921;-69
2022/03/31 09:13:28;;;;;;;;;;;6.20;99.90;;;;;;5043874;28;19956;-70
2022/03/31 09:15:56;;;;;;;;;;;6.20;99.90;;;;;;5042426;28;19921;-70
2022/03/31 09:18:24;;;;;;;;;;;6.30;99.90;;;;;;5042945;28;20221;-70
2022/03/31 09:20:52;;;;;;;;;;;6.30;99.90;;;;;;5043471;28;19927;-70
2022/03/31 09:23:21;;;;;;;;;;;6.30;99.90;;;;;;5042944;28;19971;-70
2022/03/31 09:25:50;;;;;;;;;;;6.30;99.90;;;;;;5040003;28;19921;-70
2022/03/31 09:28:19;;;;;;;;;;;6.30;99.90;;;;;;5043073;28;19921;-70
2022/03/31 09:30:46;;;;;;;;;;;6.30;99.90;;;;;;5042776;28;19944;-70
2022/03/31 09:33:24;;;;;;;;;;;6.30;99.90;;;;;;5042888;28;19927;-70
2022/03/31 09:35:56;;;;;;;;;;;6.30;99.90;;;;;;5042344;28;19921;-70
2022/03/31 09:38:24;;;;;;;;;;;6.30;99.90;;;;;;5043330;28;19928;-70
2022/03/31 09:40:50;;;;;;;;;;;6.40;99.90;;;;;;5042729;28;19921;-70
2022/03/31 09:43:17;;;;;;;;;;;6.40;99.90;;;;;;5042879;28;20217;-70
2022/03/31 09:45:44;;;;;;;;;;;6.40;99.90;;;;;;5040116;28;19992;-70
2022/03/31 09:48:18;;;;;;;;;;;6.50;99.90;;;;;;5042605;28;19976;-70
2022/03/31 09:50:45;;;;;;;;;;;6.50;99.90;;;;;;5042867;28;19952;-70
2022/03/31 09:53:12;;;;;;;;;;;6.50;99.90;;;;;;5037673;28;19922;-69
2022/03/31 09:55:42;;;;;;;;;;;6.60;99.90;;;;;;5039954;28;19927;-69
2022/03/31 09:58:09;;;;;;;;;;;6.60;99.90;;;;;;5042678;28;19921;-70
2022/03/31 10:00:35;;;;;;;;;;;6.70;99.90;;;;;;5044830;28;19921;-70
2022/03/31 10:03:04;;;;;;;;;;;6.70;99.90;;;;;;5046132;28;19982;-69
2022/03/31 10:05:33;;;;;;;;;;;6.70;99.90;;;;;;5045494;28;20255;-70
2022/03/31 10:08:00;;;;;;;;;;;6.80;99.90;;;;;;5046732;28;19921;-70
2022/03/31 10:10:27;;;;;;;;;;;6.80;99.90;;;;;;5045888;28;19929;-69
2022/03/31 10:12:58;;;;;;;;;;;6.80;99.90;;;;;;5046757;28;20208;-70
2022/03/31 10:15:29;;;;;;;;;;;6.80;99.90;;;;;;5045420;28;19928;-70
2022/03/31 10:17:56;;;;;;;;;;;6.80;99.90;;;;;;5046190;28;19964;-70
2022/03/31 10:20:23;;;;;;;;;;;6.90;99.90;;;;;;5046206;28;19928;-69
2022/03/31 10:25:41;;;;;;;;;;;6.90;99.90;;;;;;5045859;28;19956;-70
2022/03/31 10:28:11;;;;;;;;;;;6.90;99.90;;;;;;5046007;28;20205;-69
2022/03/31 10:30:38;;;;;;;;;;;6.90;99.90;;;;;;5046286;28;19921;-70
2022/03/31 10:33:06;;;;;;;;;;;6.90;99.90;;;;;;5045806;28;20213;-69
2022/03/31 10:35:34;;;;;;;;;;;7.00;99.90;;;;;;5045937;28;19967;-70
2022/03/31 10:38:11;;;;;;;;;;;7.00;99.90;;;;;;5045840;28;20220;-69
2022/03/31 10:40:39;;;;;;;;;;;7.10;99.90;;;;;;5046030;28;19921;-70
2022/03/31 10:43:06;;;;;;;;;;;7.10;99.90;;;;;;5046033;28;19960;-69
2022/03/31 10:45:35;;;;;;;;;;;7.10;99.90;;;;;;5045392;28;19933;-69
2022/03/31 10:48:12;;;;;;;;;;;7.00;99.90;;;;;;5045460;28;19929;-70
2022/03/31 10:50:39;;;;;;;;;;;7.00;99.90;;;;;;5045992;28;19921;-69
2022/03/31 10:53:05;;;;;;;;;;;7.00;99.90;;;;;;5046136;28;19920;-70
2022/03/31 10:55:36;;;;;;;;;;;7.10;99.90;;;;;;5044932;28;19925;-68
2022/03/31 10:58:04;;;;;;;;;;;7.10;99.90;;;;;;5045701;28;20093;-69
2022/03/31 11:00:30;;;;;;;;;;;7.10;99.90;;;;;;5045191;28;19925;-69
2022/03/31 11:02:58;;;;;;;;;;;7.20;99.90;;;;;;5045379;28;19921;-69
2022/03/31 11:05:27;;;;;;;;;;;7.20;99.90;;;;;;5045198;28;19921;-69
2022/03/31 11:08:04;;;;;;;;;;;7.20;99.90;;;;;;5043709;28;20250;-70
2022/03/31 11:10:40;;;;;;;;;;;7.30;99.90;;;;;;5045343;28;20143;-69
2022/03/31 11:13:07;;;;;;;;;;;7.40;99.90;;;;;;5045018;28;19929;-69
2022/03/31 11:15:34;;;;;;;;;;;7.40;99.90;;;;;;5044584;28;19921;-70
2022/03/31 11:18:03;;;;;;;;;;;7.40;99.90;;;;;;5045208;28;19936;-71
2022/03/31 11:20:30;;;;;;;;;;;7.40;99.90;;;;;;5045428;28;19921;-70
2022/03/31 11:22:59;;;;;;;;;;;7.40;99.90;;;;;;5044527;28;19927;-69
2022/03/31 11:25:26;;;;;;;;;;;7.40;99.90;;;;;;5044178;28;19933;-69
2022/03/31 11:27:53;;;;;;;;;;;7.30;99.90;;;;;;5045304;28;20156;-69
2022/03/31 11:30:21;;;;;;;;;;;7.40;99.90;;;;;;5045134;28;19943;-69
2022/03/31 11:32:52;;;;;;;;;;;7.40;99.90;;;;;;5042406;28;20144;-69
2022/03/31 11:35:21;;;;;;;;;;;7.40;99.90;;;;;;5044413;28;19921;-70
2022/03/31 11:37:48;;;;;;;;;;;7.30;99.90;;;;;;5044769;28;19921;-70
2022/03/31 11:40:22;;;;;;;;;;;7.40;99.90;;;;;;5045117;28;19928;-69
2022/03/31 11:42:50;;;;;;;;;;;7.40;99.90;;;;;;5044720;28;19927;-70
2022/03/31 11:45:27;;;;;;;;;;;7.30;99.90;;;;;;5043920;28;20235;-70
2022/03/31 11:47:57;;;;;;;;;;;7.40;99.90;;;;;;5044842;28;19971;-70
2022/03/31 11:50:26;;;;;;;;;;;7.40;99.90;;;;;;5044525;28;19921;-69
2022/03/31 11:52:53;;;;;;;;;;;7.50;99.90;;;;;;5044921;28;19921;-69
2022/03/31 11:55:21;;;;;;;;;;;7.50;99.90;;;;;;5042058;28;19943;-70
2022/03/31 11:57:51;;;;;;;;;;;7.60;99.90;;;;;;5043059;28;19921;-70
2022/03/31 12:00:18;;;;;;;;;;;7.60;99.90;;;;;;5043897;28;20147;-70
2022/03/31 12:02:54;;;;;;;;;;;7.70;99.90;;;;;;5044796;28;19927;-70
2022/03/31 12:05:21;;;;;;;;;;;7.80;99.90;;;;;;5043883;28;19929;-70
2022/03/31 12:07:50;;;;;;;;;;;7.80;99.90;;;;;;5040557;28;19948;-70
2022/03/31 12:10:18;;;;;;;;;;;7.90;99.90;;;;;;5042360;28;20153;-70
2022/03/31 12:12:49;;;;;;;;;;;8.00;99.90;;;;;;5043497;28;19933;-70
2022/03/31 12:15:22;;;;;;;;;;;8.00;99.90;;;;;;5042796;28;19921;-70
2022/03/31 12:17:56;;;;;;;;;;;8.00;99.90;;;;;;5043867;28;19921;-70
2022/03/31 12:20:23;;;;;;;;;;;8.00;99.90;;;;;;5044066;28;19960;-70
2022/03/31 12:22:51;;;;;;;;;;;8.00;99.90;;;;;;5042264;28;19921;-70
2022/03/31 12:25:26;;;;;;;;;;;8.00;99.90;;;;;;5042987;28;19967;-70
2022/03/31 12:27:52;;;;;;;;;;;7.90;99.90;;;;;;5043776;28;19921;-70
2022/03/31 12:30:19;;;;;;;;;;;7.90;99.90;;;;;;5043719;28;19929;-70
2022/03/31 12:32:46;;;;;;;;;;;7.90;99.90;;;;;;5043782;28;19928;-70
2022/03/31 12:35:13;;;;;;;;;;;8.00;99.90;;;;;;5043372;28;19928;-70
2022/03/31 12:37:40;;;;;;;;;;;8.10;99.90;;;;;;5043519;28;19959;-69
2022/03/31 12:40:10;;;;;;;;;;;8.10;99.90;;;;;;5043756;28;20108;-70
2022/03/31 12:42:38;;;;;;;;;;;8.20;99.90;;;;;;5042811;28;19921;-70
2022/03/31 12:45:11;;;;;;;;;;;8.20;99.90;;;;;;5042859;28;20116;-70
2022/03/31 12:47:41;;;;;;;;;;;8.20;99.90;;;;;;5040835;28;19928;-70
2022/03/31 12:50:14;;;;;;;;;;;8.30;99.90;;;;;;5041064;28;19921;-70
2022/03/31 12:52:51;;;;;;;;;;;8.30;99.90;;;;;;5043396;28;19985;-70
2022/03/31 12:55:19;;;;;;;;;;;8.40;99.90;;;;;;5040334;28;19921;-70
2022/03/31 12:57:54;;;;;;;;;;;8.50;99.90;;;;;;5043473;28;19921;-70
2022/03/31 13:00:22;;;;;;;;;;;8.50;99.90;;;;;;5042916;28;19927;-69
2022/03/31 13:02:49;;;;;;;;;;;8.60;99.90;;;;;;5036910;28;19967;-70
2022/03/31 13:05:18;;;;;;;;;;;8.60;99.90;;;;;;5042681;28;19921;-70
2022/03/31 13:07:45;;;;;;;;;;;8.60;99.90;;;;;;5042972;28;19928;-70
2022/03/31 13:10:12;;;;;;;;;;;8.60;99.90;;;;;;5043497;28;20086;-70
2022/03/31 13:12:40;;;;;;;;;;;8.60;99.90;;;;;;5043272;28;19921;-70
2022/03/31 13:15:11;;;;;;;;;;;8.60;99.90;;;;;;5042471;28;19928;-70
2022/03/31 13:17:37;;;;;;;;;;;8.50;99.90;;;;;;5042373;28;19943;-70
2022/03/31 13:20:05;;;;;;;;;;;8.60;99.90;;;;;;5043394;28;19921;-68
2022/03/31 13:22:31;;;;;;;;;;;8.50;99.90;;;;;;5043202;28;19927;-69
2022/03/31 13:24:58;;;;;;;;;;;8.50;99.90;;;;;;5043265;28;19921;-69
2022/03/31 13:27:26;;;;;;;;;;;8.50;99.90;;;;;;5042894;28;19956;-69
2022/03/31 13:29:54;;;;;;;;;;;8.50;99.90;;;;;;5043403;28;19928;-69
2022/03/31 13:32:21;;;;;;;;;;;8.50;99.90;;;;;;5042879;28;20222;-69
2022/03/31 13:34:48;;;;;;;;;;;8.40;99.90;;;;;;5044451;28;19929;-69
2022/03/31 13:37:16;;;;;;;;;;;8.40;99.90;;;;;;5044907;28;19928;-69
2022/03/31 13:39:43;;;;;;;;;;;8.40;99.90;;;;;;5046223;28;19925;-69
2022/03/31 13:42:10;;;;;;;;;;;8.50;99.90;;;;;;5047289;28;19944;-69
2022/03/31 13:44:37;;;;;;;;;;;8.40;99.90;;;;;;5047540;28;19921;-69
2022/03/31 13:47:05;;;;;;;;;;;8.40;99.90;;;;;;5046645;28;19921;-69
2022/03/31 13:49:33;;;;;;;;;;;8.40;99.90;;;;;;5041389;28;19921;-71
2022/03/31 13:52:00;;;;;;;;;;;8.40;99.90;;;;;;5046789;28;19988;-70
2022/03/31 13:54:27;;;;;;;;;;;8.50;99.90;;;;;;5046520;28;19944;-70
2022/03/31 13:56:55;;;;;;;;;;;8.50;99.90;;;;;;5046153;28;20231;-70
2022/03/31 14:02:08;;;;;;;;;;;8.50;99.90;;;;;;5046945;28;19948;-70
2022/03/31 14:04:37;;;;;;;;;;;8.40;99.90;;;;;;5044625;28;19928;-70
2022/03/31 14:07:06;;;;;;;;;;;8.40;99.90;;;;;;5046207;28;20330;-75
2022/03/31 14:09:35;;;;;;;;;;;8.40;99.90;;;;;;5046804;28;19935;-70
2022/03/31 14:12:01;;;;;;;;;;;8.40;99.90;;;;;;5046199;28;20419;-70
2022/03/31 14:14:28;;;;;;;;;;;8.40;99.90;;;;;;5046928;28;19921;-70
2022/03/31 14:16:56;;;;;;;;;;;8.40;99.90;;;;;;5045733;28;19927;-70
2022/03/31 14:19:25;;;;;;;;;;;8.40;99.90;;;;;;5046997;28;19921;-70
2022/03/31 14:21:52;;;;;;;;;;;8.40;99.90;;;;;;5046942;28;19922;-70
2022/03/31 14:24:20;;;;;;;;;;;8.40;99.90;;;;;;5046401;28;19925;-70
2022/03/31 14:26:48;;;;;;;;;;;8.40;99.90;;;;;;5043898;28;19936;-70
2022/03/31 14:29:17;;;;;;;;;;;8.40;99.90;;;;;;5044180;28;20196;-70
2022/03/31 14:31:44;;;;;;;;;;;8.40;99.90;;;;;;5046717;28;19921;-70
2022/03/31 14:34:13;;;;;;;;;;;8.50;99.90;;;;;;5046472;28;19984;-69
2022/03/31 14:36:42;;;;;;;;;;;8.50;99.90;;;;;;5045627;28;19979;-69
2022/03/31 14:39:10;;;;;;;;;;;8.50;99.90;;;;;;5045967;28;20231;-69